Terminal Aerodrome Forecast
Issued by NWS

Home | Current Version | Previous Version | Text Only | Print | Product List | Glossary On
Versions: 1 2 3 4 5 6 7 8 9 10 11 12 13 14 15 16 17 18
000
FTUS43 KAPX 311354 AAA
TAFPLN
TAF AMD
KPLN 311354Z 3114/0112 07006KT P6SM SCT007
      TEMPO 3114/3116 BKN007
     FM311900 04004KT P6SM OVC110
     FM312200 12004KT 4SM -RASN OVC040
     FM010100 09005KT 1SM -SN OVC008
     FM010700 07005KT P6SM OVC008=

USA.gov is the U.S. government's official web portal to all federal, state and local government web resources and services.